createdAt,value
2019-03-16T00:00:32.503Z,3.17
2019-03-16T00:02:58.665Z,3.80
2019-03-16T00:05:24.845Z,3.00
2019-03-16T00:07:51.005Z,3.20
2019-03-16T00:10:17.262Z,3.27
2019-03-16T00:12:43.462Z,3.67
2019-03-16T00:15:09.720Z,2.60
2019-03-16T00:17:35.879Z,3.30
2019-03-16T00:20:04.381Z,3.37
2019-03-16T00:22:30.588Z,3.30
2019-03-16T00:24:56.851Z,3.53
2019-03-16T00:27:23.031Z,2.83
2019-03-16T00:29:49.194Z,3.30
2019-03-16T00:32:15.368Z,3.40
2019-03-16T00:34:41.564Z,3.17
2019-03-16T00:37:07.720Z,2.97
2019-03-16T00:39:33.984Z,3.50
2019-03-16T00:42:00.174Z,3.20
2019-03-16T00:44:26.448Z,3.47
2019-03-16T00:46:52.607Z,3.21
2019-03-16T00:49:18.796Z,3.03
2019-03-16T00:51:44.952Z,2.67
2019-03-16T00:54:11.220Z,3.00
2019-03-16T00:56:37.417Z,3.47
2019-03-16T00:59:03.571Z,3.67
2019-03-16T01:01:29.764Z,3.30
2019-03-16T01:03:55.963Z,3.43
2019-03-16T01:06:22.119Z,3.40
2019-03-16T01:08:48.275Z,3.23
2019-03-16T01:11:14.464Z,3.00
2019-03-16T01:13:40.620Z,2.83
2019-03-16T01:16:06.888Z,3.23
2019-03-16T01:18:33.075Z,2.87
2019-03-16T01:20:59.236Z,2.60
2019-03-16T01:23:26.302Z,3.00
2019-03-16T01:25:52.503Z,2.93
2019-03-16T01:28:18.667Z,2.83
2019-03-16T01:30:44.828Z,3.10
2019-03-16T01:33:11.040Z,3.30
2019-03-16T01:35:37.302Z,2.97
2019-03-16T01:38:03.545Z,3.10
2019-03-16T01:40:29.743Z,3.30
2019-03-16T01:42:56.007Z,2.63
2019-03-16T01:45:22.159Z,3.77
2019-03-16T01:47:48.344Z,3.00
2019-03-16T01:50:14.507Z,3.37
2019-03-16T01:52:40.671Z,3.13
2019-03-16T01:55:07.757Z,3.40
2019-03-16T01:57:33.919Z,3.43
2019-03-16T02:00:00.074Z,3.23
2019-03-16T02:02:26.269Z,3.20
2019-03-16T02:04:52.533Z,3.60
2019-03-16T02:07:18.702Z,2.99
2019-03-16T02:09:44.986Z,3.60
2019-03-16T02:12:11.145Z,3.60
2019-03-16T02:14:37.338Z,4.10
2019-03-16T02:17:03.531Z,3.50
2019-03-16T02:19:29.693Z,3.13
2019-03-16T02:21:55.870Z,3.77
2019-03-16T02:24:22.198Z,3.23
2019-03-16T02:26:48.346Z,3.60
2019-03-16T02:29:14.503Z,3.90
2019-03-16T02:31:40.690Z,3.27
2019-03-16T02:34:06.857Z,3.83
2019-03-16T02:36:33.007Z,3.80
2019-03-16T02:38:59.198Z,3.83
2019-03-16T02:41:25.352Z,4.23
2019-03-16T02:43:51.507Z,3.70
2019-03-16T02:46:17.684Z,3.27
2019-03-16T02:48:43.845Z,3.50
2019-03-16T02:51:10.102Z,3.40
2019-03-16T02:53:36.393Z,3.70
2019-03-16T02:56:02.544Z,2.87
2019-03-16T02:58:29.097Z,3.13
2019-03-16T03:00:55.294Z,3.27
2019-03-16T03:03:29.256Z,3.33
2019-03-16T03:05:49.521Z,3.67
2019-03-16T03:08:15.700Z,3.37
2019-03-16T03:10:41.872Z,3.30
2019-03-16T03:13:08.022Z,3.17
2019-03-16T03:15:34.212Z,3.37
2019-03-16T03:18:00.375Z,3.40
2019-03-16T03:20:26.546Z,2.77
2019-03-16T03:22:52.748Z,2.83
2019-03-16T03:25:19.896Z,2.90
2019-03-16T03:27:46.041Z,3.17
2019-03-16T03:30:12.723Z,2.80
2019-03-16T03:32:38.983Z,2.77
2019-03-16T03:35:06.755Z,2.97
2019-03-16T03:37:32.936Z,3.20
2019-03-16T03:39:59.093Z,2.73
2019-03-16T03:42:25.256Z,2.80
2019-03-16T03:44:51.552Z,3.20
2019-03-16T03:47:17.710Z,3.33
2019-03-16T03:49:43.867Z,2.60
2019-03-16T03:52:10.060Z,2.50
2019-03-16T03:54:36.219Z,2.30
2019-03-16T03:57:03.086Z,2.63
2019-03-16T03:59:29.257Z,2.70
2019-03-16T04:01:55.435Z,4.20
2019-03-16T04:04:21.590Z,2.83
2019-03-16T04:06:47.890Z,2.97
2019-03-16T04:09:14.050Z,2.93
2019-03-16T04:11:40.301Z,3.00
2019-03-16T04:14:06.498Z,3.10
2019-03-16T04:16:32.755Z,2.40
2019-03-16T04:18:58.918Z,2.77
2019-03-16T04:21:25.234Z,3.00
2019-03-16T04:23:51.502Z,2.63
2019-03-16T04:26:17.745Z,3.10
2019-03-16T04:28:43.947Z,2.53
2019-03-16T04:31:10.240Z,2.70
2019-03-16T04:33:36.388Z,2.90
2019-03-16T04:36:02.592Z,2.90
2019-03-16T04:38:28.730Z,2.87
2019-03-16T04:40:54.897Z,2.63
2019-03-16T04:43:21.226Z,2.90
2019-03-16T04:45:47.478Z,2.90
2019-03-16T04:48:13.636Z,3.10
2019-03-16T04:50:39.817Z,3.40
2019-03-16T04:53:06.086Z,3.03
2019-03-16T04:55:32.249Z,2.93
2019-03-16T04:57:58.440Z,2.67
2019-03-16T05:00:24.596Z,3.77
2019-03-16T05:02:50.868Z,3.40
2019-03-16T05:05:17.067Z,3.37
2019-03-16T05:07:43.225Z,2.83
2019-03-16T05:10:10.092Z,3.37
2019-03-16T05:12:36.297Z,3.43
2019-03-16T05:15:04.752Z,3.27
2019-03-16T05:17:30.912Z,2.80
2019-03-16T05:19:57.536Z,3.20
2019-03-16T05:22:23.816Z,2.63
2019-03-16T05:24:49.982Z,2.53
2019-03-16T05:27:16.167Z,3.60
2019-03-16T05:29:42.319Z,2.00
2019-03-16T05:32:08.496Z,2.03
2019-03-16T05:34:34.681Z,2.27
2019-03-16T05:37:00.841Z,2.03
2019-03-16T05:39:27.002Z,2.40
2019-03-16T05:41:53.407Z,2.00
2019-03-16T05:44:19.661Z,2.90
2019-03-16T05:46:45.828Z,3.63
2019-03-16T05:49:12.022Z,6.00
2019-03-16T05:51:38.283Z,3.37
2019-03-16T05:54:04.547Z,5.17
2019-03-16T05:56:30.749Z,4.30
2019-03-16T05:58:56.908Z,7.23
2019-03-16T06:01:23.085Z,2.43
2019-03-16T06:03:49.268Z,3.67
2019-03-16T06:06:15.434Z,4.43
2019-03-16T06:08:41.628Z,2.83
2019-03-16T06:11:07.815Z,3.53
2019-03-16T06:13:33.985Z,4.83
2019-03-16T06:16:00.148Z,4.67
2019-03-16T06:18:26.346Z,4.13
2019-03-16T06:20:52.505Z,5.33
2019-03-16T06:23:18.667Z,4.00
2019-03-16T06:25:45.258Z,3.57
2019-03-16T06:28:12.404Z,3.10
2019-03-16T06:30:38.671Z,3.60
2019-03-16T06:33:04.863Z,5.50
2019-03-16T06:35:31.027Z,5.20
2019-03-16T06:37:57.310Z,4.00
2019-03-16T06:40:23.613Z,4.57
2019-03-16T06:42:49.787Z,3.40
2019-03-16T06:45:15.957Z,4.47
2019-03-16T06:47:42.157Z,3.07
2019-03-16T06:50:14.731Z,2.80
2019-03-16T06:52:40.891Z,2.93
2019-03-16T06:55:07.191Z,2.60
2019-03-16T06:57:33.352Z,2.93
2019-03-16T06:59:59.523Z,2.50
2019-03-16T07:02:25.722Z,2.93
2019-03-16T07:04:51.885Z,2.90
2019-03-16T07:07:18.045Z,2.70
2019-03-16T07:09:44.245Z,2.40
2019-03-16T07:12:10.410Z,1.77
2019-03-16T07:14:36.577Z,2.57
2019-03-16T07:17:02.778Z,3.10
2019-03-16T07:19:28.927Z,3.50
2019-03-16T07:21:55.190Z,3.63
2019-03-16T07:24:21.482Z,3.70
2019-03-16T07:26:47.636Z,3.53
2019-03-16T07:29:14.230Z,3.17
2019-03-16T07:31:40.431Z,3.30
2019-03-16T07:34:06.604Z,3.80
2019-03-16T07:36:35.893Z,2.97
2019-03-16T07:39:00.946Z,4.50
2019-03-16T07:41:27.101Z,6.30
2019-03-16T07:43:53.262Z,4.57
2019-03-16T07:46:19.470Z,4.03
2019-03-16T07:48:45.622Z,3.77
2019-03-16T07:51:11.788Z,5.03
2019-03-16T07:53:37.980Z,4.97
2019-03-16T07:56:04.150Z,5.73
2019-03-16T07:58:30.308Z,4.43
2019-03-16T08:00:56.596Z,4.07
2019-03-16T08:03:22.759Z,4.23
2019-03-16T08:05:48.910Z,3.30
2019-03-16T08:08:15.201Z,3.00
2019-03-16T08:10:41.359Z,3.80
2019-03-16T08:13:07.514Z,3.10
2019-03-16T08:15:33.699Z,2.90
2019-03-16T08:17:59.860Z,3.87
2019-03-16T08:20:26.016Z,4.07
2019-03-16T08:22:52.217Z,4.73
2019-03-16T08:25:18.375Z,4.77
2019-03-16T08:27:53.893Z,4.27
2019-03-16T08:30:12.632Z,3.17
2019-03-16T08:32:38.782Z,3.97
2019-03-16T08:35:05.546Z,2.97
2019-03-16T08:37:31.753Z,3.37
2019-03-16T08:39:57.910Z,3.87
2019-03-16T08:42:24.081Z,2.83
2019-03-16T08:44:50.276Z,3.60
2019-03-16T08:47:16.431Z,5.27
2019-03-16T08:49:42.594Z,4.03
2019-03-16T08:52:08.785Z,3.80
2019-03-16T08:54:34.935Z,2.77
2019-03-16T08:57:01.199Z,2.93
2019-03-16T08:59:27.493Z,4.87
2019-03-16T09:01:53.645Z,4.80
2019-03-16T09:04:19.808Z,2.80
2019-03-16T09:06:46.108Z,2.63
2019-03-16T09:09:12.260Z,2.10
2019-03-16T09:11:38.416Z,2.00
2019-03-16T09:14:04.617Z,1.37
2019-03-16T09:16:30.769Z,2.07
2019-03-16T09:18:56.918Z,1.50
2019-03-16T09:21:23.109Z,2.33
2019-03-16T09:23:49.373Z,2.40
2019-03-16T09:26:15.530Z,1.87
2019-03-16T09:28:41.725Z,2.57
2019-03-16T09:31:08.027Z,2.07
2019-03-16T09:33:34.180Z,2.03
2019-03-16T09:36:00.373Z,4.50
2019-03-16T09:38:26.526Z,2.20
2019-03-16T09:40:52.698Z,2.30
2019-03-16T09:43:18.883Z,2.47
2019-03-16T09:45:45.040Z,1.80
2019-03-16T09:48:11.201Z,1.80
2019-03-16T09:50:37.389Z,1.37
2019-03-16T09:53:03.548Z,4.63
2019-03-16T09:55:29.708Z,1.73
2019-03-16T09:57:56.016Z,1.90
2019-03-16T10:00:22.277Z,1.73
2019-03-16T10:02:48.443Z,2.10
2019-03-16T10:05:14.620Z,1.60
2019-03-16T10:07:40.878Z,1.43
2019-03-16T10:10:11.631Z,1.80
2019-03-16T10:12:37.813Z,1.93
2019-03-16T10:15:08.727Z,1.80
2019-03-16T10:17:34.891Z,1.93
2019-03-16T10:20:01.072Z,1.70
2019-03-16T10:22:27.258Z,1.40
2019-03-16T10:24:53.392Z,1.73
2019-03-16T10:27:19.580Z,1.63
2019-03-16T10:29:45.983Z,1.87
2019-03-16T10:32:13.221Z,2.30
2019-03-16T10:34:39.414Z,2.43
2019-03-16T10:37:05.570Z,2.60
2019-03-16T10:39:31.738Z,1.80
2019-03-16T10:41:57.927Z,1.43
2019-03-16T10:44:24.085Z,1.77
2019-03-16T10:46:50.240Z,1.67
2019-03-16T10:49:16.433Z,1.60
2019-03-16T10:51:42.584Z,1.53
2019-03-16T10:54:08.745Z,1.70
2019-03-16T10:56:34.930Z,1.60
2019-03-16T10:59:01.088Z,1.57
2019-03-16T11:01:27.352Z,1.57
2019-03-16T11:03:53.535Z,1.13
2019-03-16T11:06:19.693Z,1.40
2019-03-16T11:08:45.855Z,1.43
2019-03-16T11:11:12.048Z,1.37
2019-03-16T11:13:38.203Z,1.50
2019-03-16T11:16:04.472Z,1.20
2019-03-16T11:18:30.674Z,2.10
2019-03-16T11:20:56.832Z,1.40
2019-03-16T11:23:22.984Z,1.63
2019-03-16T11:25:49.183Z,1.50
2019-03-16T11:28:15.336Z,0.80
2019-03-16T11:30:41.501Z,1.20
2019-03-16T11:33:07.856Z,1.30
2019-03-16T11:35:34.002Z,1.47
2019-03-16T11:38:00.156Z,1.37
2019-03-16T11:40:26.360Z,1.37
2019-03-16T11:42:52.534Z,1.03
2019-03-16T11:45:18.831Z,1.27
2019-03-16T11:47:45.021Z,1.00
2019-03-16T11:50:11.882Z,0.90
2019-03-16T11:52:38.053Z,1.40
2019-03-16T11:55:07.058Z,0.87
2019-03-16T11:57:33.217Z,1.00
2019-03-16T11:59:59.378Z,1.03
2019-03-16T12:02:25.655Z,1.53
2019-03-16T12:04:51.815Z,0.80
2019-03-16T12:07:18.081Z,0.97
2019-03-16T12:09:44.278Z,1.20
2019-03-16T12:12:10.435Z,0.93
2019-03-16T12:14:36.592Z,1.23
2019-03-16T12:17:02.781Z,1.30
2019-03-16T12:19:28.940Z,2.43
2019-03-16T12:21:55.102Z,1.50
2019-03-16T12:24:21.291Z,1.60
2019-03-16T12:26:47.448Z,1.30
2019-03-16T12:29:13.606Z,1.17
2019-03-16T12:31:39.803Z,1.70
2019-03-16T12:34:06.122Z,1.50
2019-03-16T12:36:32.392Z,1.57
2019-03-16T12:38:58.590Z,1.37
2019-03-16T12:41:24.746Z,2.17
2019-03-16T12:43:50.903Z,3.27
2019-03-16T12:46:17.096Z,1.70
2019-03-16T12:48:43.251Z,6.43
2019-03-16T12:51:09.520Z,1.80
2019-03-16T12:53:35.709Z,1.63
2019-03-16T12:56:01.871Z,5.97
2019-03-16T12:58:28.025Z,3.10
2019-03-16T13:00:54.215Z,3.60
2019-03-16T13:03:20.393Z,4.50
2019-03-16T13:05:46.642Z,1.40
2019-03-16T13:08:12.824Z,1.30
2019-03-16T13:10:38.980Z,1.40
2019-03-16T13:13:05.137Z,0.87
2019-03-16T13:15:31.327Z,1.20
2019-03-16T13:17:57.479Z,1.40
2019-03-16T13:20:23.640Z,2.03
2019-03-16T13:22:49.831Z,1.60
2019-03-16T13:25:16.103Z,1.40
2019-03-16T13:27:42.271Z,1.40
2019-03-16T13:30:11.377Z,1.70
2019-03-16T13:32:37.540Z,1.37
2019-03-16T13:35:05.914Z,1.80
2019-03-16T13:37:32.108Z,1.60
2019-03-16T13:39:58.262Z,1.50
2019-03-16T13:42:24.423Z,1.73
2019-03-16T13:44:50.620Z,1.43
2019-03-16T13:47:16.782Z,1.63
2019-03-16T13:49:43.038Z,1.50
2019-03-16T13:52:09.224Z,1.33
2019-03-16T13:54:35.583Z,2.03
2019-03-16T13:57:01.731Z,1.70
2019-03-16T13:59:27.922Z,1.40
2019-03-16T14:01:54.081Z,2.03
2019-03-16T14:04:20.337Z,2.10
2019-03-16T14:06:46.533Z,2.17
2019-03-16T14:09:12.693Z,1.90
2019-03-16T14:11:41.185Z,1.67
2019-03-16T14:14:06.941Z,2.60
2019-03-16T14:16:33.101Z,3.77
2019-03-16T14:18:59.460Z,7.30
2019-03-16T14:21:25.751Z,3.43
2019-03-16T14:23:51.926Z,2.20
2019-03-16T14:26:18.079Z,1.90
2019-03-16T14:28:44.266Z,1.93
2019-03-16T14:31:10.424Z,1.60
2019-03-16T14:33:36.574Z,1.97
2019-03-16T14:36:03.098Z,1.70
2019-03-16T14:38:29.281Z,2.00
2019-03-16T14:40:55.436Z,1.60
2019-03-16T14:43:21.632Z,1.90
2019-03-16T14:45:49.148Z,2.27
2019-03-16T14:48:15.451Z,1.93
2019-03-16T14:50:41.638Z,2.00
2019-03-16T14:53:07.794Z,1.80
2019-03-16T14:55:33.951Z,1.70
2019-03-16T14:58:00.134Z,2.03
2019-03-16T15:00:37.799Z,2.40
2019-03-16T15:02:54.353Z,6.87
2019-03-16T15:05:20.654Z,3.80
2019-03-16T15:07:49.522Z,2.53
2019-03-16T15:10:15.980Z,2.53
2019-03-16T15:12:42.172Z,2.23
2019-03-16T15:15:11.434Z,2.70
2019-03-16T15:17:37.594Z,2.57
2019-03-16T15:20:06.586Z,2.63
2019-03-16T15:22:32.753Z,2.73
2019-03-16T15:24:58.922Z,2.03
2019-03-16T15:27:25.228Z,2.70
2019-03-16T15:29:51.391Z,3.80
2019-03-16T15:32:17.552Z,6.80
2019-03-16T15:34:43.744Z,5.20
2019-03-16T15:37:10.053Z,8.90
2019-03-16T15:39:36.253Z,3.37
2019-03-16T15:42:02.409Z,9.30
2019-03-16T15:44:28.570Z,15.37
2019-03-16T15:46:54.723Z,20.53
2019-03-16T15:49:20.923Z,36.70
2019-03-16T15:51:47.170Z,7.00
2019-03-16T15:54:13.336Z,5.80
2019-03-16T15:56:39.524Z,4.80
2019-03-16T15:59:05.683Z,3.20
2019-03-16T16:01:31.851Z,3.07
2019-03-16T16:03:58.037Z,3.03
2019-03-16T16:06:24.296Z,4.47
2019-03-16T16:08:50.558Z,2.90
2019-03-16T16:11:16.771Z,3.23
2019-03-16T16:13:43.021Z,5.37
2019-03-16T16:16:09.195Z,4.17
2019-03-16T16:18:35.370Z,7.67
2019-03-16T16:21:01.790Z,4.40
2019-03-16T16:23:27.947Z,3.20
2019-03-16T16:25:54.132Z,3.30
2019-03-16T16:28:20.404Z,3.50
2019-03-16T16:30:47.079Z,3.50
2019-03-16T16:33:13.423Z,3.20
2019-03-16T16:35:39.592Z,4.03
2019-03-16T16:38:05.831Z,2.90
2019-03-16T16:40:32.010Z,3.07
2019-03-16T16:42:58.163Z,3.97
2019-03-16T16:45:24.439Z,5.80
2019-03-16T16:47:50.630Z,4.10
2019-03-16T16:50:38.338Z,5.17
2019-03-16T16:53:04.566Z,5.30
2019-03-16T16:55:30.729Z,3.50
2019-03-16T16:57:56.887Z,5.00
2019-03-16T17:00:24.791Z,5.47
2019-03-16T17:02:51.120Z,3.43
2019-03-16T17:05:17.319Z,3.70
2019-03-16T17:07:43.710Z,3.53
2019-03-16T17:10:14.890Z,3.23
2019-03-16T17:12:43.804Z,2.80
2019-03-16T17:15:14.699Z,3.20
2019-03-16T17:17:40.959Z,2.87
2019-03-16T17:20:09.930Z,2.80
2019-03-16T17:22:37.445Z,4.10
2019-03-16T17:25:06.188Z,5.07
2019-03-16T17:27:32.456Z,3.20
2019-03-16T17:29:58.655Z,4.03
2019-03-16T17:32:24.823Z,4.20
2019-03-16T17:34:50.974Z,4.20
2019-03-16T17:37:17.616Z,4.87
2019-03-16T17:39:44.933Z,2.80
2019-03-16T17:42:11.891Z,2.57
2019-03-16T17:44:38.080Z,3.80
2019-03-16T17:47:04.237Z,2.80
2019-03-16T17:49:30.403Z,4.00
2019-03-16T17:51:58.129Z,4.30
2019-03-16T17:54:24.546Z,4.20
2019-03-16T17:56:50.700Z,5.03
2019-03-16T17:59:16.891Z,4.70
2019-03-16T18:01:54.312Z,4.00
2019-03-16T18:04:11.209Z,3.67
2019-03-16T18:06:37.412Z,4.47
2019-03-16T18:09:05.664Z,2.93
2019-03-16T18:11:31.830Z,3.53
2019-03-16T18:13:58.015Z,4.70
2019-03-16T18:16:24.272Z,2.73
2019-03-16T18:18:50.431Z,5.07
2019-03-16T18:21:16.635Z,3.30
2019-03-16T18:23:42.899Z,4.43
2019-03-16T18:26:09.295Z,5.63
2019-03-16T18:28:36.460Z,8.73
2019-03-16T18:31:02.626Z,5.63
2019-03-16T18:33:28.786Z,6.43
2019-03-16T18:35:54.970Z,5.17
2019-03-16T18:38:21.128Z,3.70
2019-03-16T18:40:48.285Z,4.00
2019-03-16T18:43:14.490Z,3.43
2019-03-16T18:45:40.647Z,4.07
2019-03-16T18:48:06.795Z,2.93
2019-03-16T18:50:32.991Z,3.80
2019-03-16T18:52:59.155Z,3.80
2019-03-16T18:55:25.316Z,7.97
2019-03-16T18:57:51.638Z,5.40
2019-03-16T19:00:18.292Z,7.83
2019-03-16T19:02:44.444Z,6.47
2019-03-16T19:05:10.642Z,4.57
2019-03-16T19:07:36.804Z,4.20
2019-03-16T19:10:06.477Z,3.97
2019-03-16T19:12:32.675Z,3.77
2019-03-16T19:14:58.826Z,4.03
2019-03-16T19:17:24.990Z,4.37
2019-03-16T19:19:51.205Z,4.83
2019-03-16T19:22:17.373Z,4.07
2019-03-16T19:24:43.534Z,4.77
2019-03-16T19:27:09.746Z,5.57
2019-03-16T19:29:35.912Z,5.13
2019-03-16T19:32:02.366Z,7.37
2019-03-16T19:34:28.672Z,4.00
2019-03-16T19:36:54.842Z,4.03
2019-03-16T19:39:20.992Z,2.90
2019-03-16T19:41:48.111Z,5.87
2019-03-16T19:44:14.267Z,5.72
2019-03-16T19:46:40.431Z,4.80
2019-03-16T19:49:07.157Z,3.60
2019-03-16T19:51:33.512Z,3.00
2019-03-16T19:53:59.672Z,3.80
2019-03-16T19:56:25.881Z,2.40
2019-03-16T19:59:00.709Z,2.70
2019-03-16T20:01:20.193Z,3.33
2019-03-16T20:03:46.393Z,2.83
2019-03-16T20:06:24.855Z,2.50
2019-03-16T20:08:40.609Z,2.60
2019-03-16T20:11:07.390Z,3.10
2019-03-16T20:13:33.704Z,2.20
2019-03-16T20:15:59.857Z,3.27
2019-03-16T20:18:26.046Z,2.60
2019-03-16T20:20:52.203Z,2.57
2019-03-16T20:23:23.804Z,2.97
2019-03-16T20:25:50.101Z,2.70
2019-03-16T20:28:16.255Z,2.70
2019-03-16T20:30:42.521Z,2.77
2019-03-16T20:33:08.716Z,2.20
2019-03-16T20:35:34.874Z,2.70
2019-03-16T20:38:01.022Z,2.07
2019-03-16T20:40:27.246Z,2.50
2019-03-16T20:42:53.507Z,2.30
2019-03-16T20:45:19.849Z,2.67
2019-03-16T20:47:46.158Z,2.57
2019-03-16T20:50:14.110Z,2.50
2019-03-16T20:52:40.272Z,2.40
2019-03-16T20:55:07.680Z,2.73
2019-03-16T20:57:33.832Z,2.67
2019-03-16T20:59:59.989Z,2.60
2019-03-16T21:02:26.181Z,3.07
2019-03-16T21:04:52.336Z,4.00
2019-03-16T21:07:18.492Z,3.13
2019-03-16T21:09:44.685Z,7.17
2019-03-16T21:12:10.841Z,5.17
2019-03-16T21:14:36.994Z,3.93
2019-03-16T21:17:03.191Z,6.53
2019-03-16T21:19:29.446Z,5.43
2019-03-16T21:21:55.607Z,3.20
2019-03-16T21:24:21.808Z,2.53
2019-03-16T21:26:52.740Z,3.53
2019-03-16T21:29:16.024Z,3.13
2019-03-16T21:31:42.204Z,2.77
2019-03-16T21:34:08.380Z,4.00
2019-03-16T21:36:41.434Z,3.77
2019-03-16T21:39:05.732Z,3.87
2019-03-16T21:41:31.888Z,4.77
2019-03-16T21:43:58.922Z,4.27
2019-03-16T21:46:25.226Z,2.93
2019-03-16T21:48:51.267Z,3.53
2019-03-16T21:51:17.428Z,3.50
2019-03-16T21:53:43.616Z,5.93
2019-03-16T21:56:09.775Z,2.47
2019-03-16T21:58:35.935Z,2.93
2019-03-16T22:01:02.126Z,3.27
2019-03-16T22:03:28.281Z,4.27
2019-03-16T22:05:54.431Z,3.23
2019-03-16T22:08:21.737Z,3.87
2019-03-16T22:10:48.017Z,4.43
2019-03-16T22:13:14.217Z,3.43
2019-03-16T22:15:41.367Z,3.07
2019-03-16T22:18:07.528Z,2.37
2019-03-16T22:20:33.684Z,3.60
2019-03-16T22:22:59.870Z,2.90
2019-03-16T22:25:26.042Z,3.63
2019-03-16T22:27:52.255Z,3.40
2019-03-16T22:30:18.489Z,3.67
2019-03-16T22:32:45.120Z,3.67
2019-03-16T22:35:11.279Z,2.60
2019-03-16T22:37:37.473Z,2.40
2019-03-16T22:40:11.436Z,2.80
2019-03-16T22:42:37.587Z,2.30
2019-03-16T22:45:09.000Z,2.53
2019-03-16T22:47:35.160Z,2.80
2019-03-16T22:50:01.417Z,3.10
2019-03-16T22:52:27.612Z,2.83
2019-03-16T22:54:53.771Z,3.03
2019-03-16T22:57:19.956Z,2.70
2019-03-16T22:59:46.225Z,2.70
2019-03-16T23:02:12.382Z,2.20
2019-03-16T23:04:38.543Z,2.30
2019-03-16T23:07:04.724Z,3.07
2019-03-16T23:09:30.881Z,2.80
2019-03-16T23:11:57.039Z,3.10
2019-03-16T23:14:23.239Z,3.20
2019-03-16T23:16:49.401Z,3.80
2019-03-16T23:19:15.554Z,3.67
2019-03-16T23:21:41.748Z,3.07
2019-03-16T23:24:07.892Z,3.30
2019-03-16T23:26:38.776Z,3.07
2019-03-16T23:29:02.256Z,3.37
2019-03-16T23:31:28.410Z,3.10
2019-03-16T23:33:54.560Z,3.23
2019-03-16T23:36:20.762Z,2.73
2019-03-16T23:38:46.927Z,3.03
2019-03-16T23:41:13.082Z,3.27
2019-03-16T23:43:39.272Z,3.10
2019-03-16T23:46:05.485Z,3.03
2019-03-16T23:48:31.637Z,3.20
2019-03-16T23:50:57.825Z,3.67
2019-03-16T23:53:24.079Z,3.03
2019-03-16T23:55:50.230Z,3.20
2019-03-16T23:58:16.545Z,3.27
